Ginga — JD3555 — position and weather

sailwx.info

Track history (hours):
 
Tides and Currents Weather Stations Pressure Air Temp Water Temp Dewpoint Dewpoint Depression Visibility Wind Speed Wind Dir Waves Ship Positions

Ginga

Last reported at 2017-Dec-17 15:00 UTC. Time now 2017-Dec-17 15:29 UTC.
Position N 35°27' E 139°39'.

Length 38 m; draft 3.3 m.

Type: Tug. MMSI: 431004768.

Date/timePositionNaut miles runAvg speedWind from/ knotsBaromVisibWave heightAir tempDewpointWater temp
2017-Dec-17 15:00N 35°27' E 139°39'0 0.0
2017-Dec-17 14:31N 35°27' E 139°39'0 0.0
2017-Dec-17 14:00N 35°27' E 139°39'0 0.0
2017-Dec-17 13:30N 35°27' E 139°39'0 0.0
2017-Dec-17 13:00N 35°27' E 139°39'0 0.0
2017-Dec-17 12:30N 35°27' E 139°39'0 0.0
2017-Dec-17 12:01N 35°27' E 139°39'0 0.0
2017-Dec-17 11:30N 35°27' E 139°39'2 4.3
2017-Dec-17 11:00N 35°26' E 139°42'2 3.6
2017-Dec-17 10:31N 35°24' E 139°41'0 0.1
2017-Dec-17 10:00N 35°24' E 139°41'1 2.6
2017-Dec-17 09:30N 35°23' E 139°41'0 0.8
2017-Dec-17 09:01N 35°23' E 139°41'3 5.7
2017-Dec-17 08:30N 35°26' E 139°41'3 6.7
2017-Dec-17 08:00N 35°28' E 139°45'2 4.5
2017-Dec-17 07:31N 35°30' E 139°47'0 0.1
2017-Dec-17 07:00N 35°30' E 139°47'0 0.0
2017-Dec-17 06:30N 35°30' E 139°47'1 1.8
2017-Dec-17 06:01N 35°30' E 139°48'1 2.5
2017-Dec-17 05:30N 35°28' E 139°48'1 2.7
2017-Dec-17 05:01N 35°29' E 139°47'0 0.0
2017-Dec-17 04:30N 35°29' E 139°47'0 0.0
2017-Dec-17 04:01N 35°29' E 139°47'0 0.0
2017-Dec-17 03:30N 35°29' E 139°47'0 0.7
2017-Dec-17 03:00N 35°29' E 139°47'0 0.0
2017-Dec-17 02:30N 35°29' E 139°47'0 0.0
2017-Dec-17 02:01N 35°29' E 139°47'0 0.2
2017-Dec-17 01:30N 35°29' E 139°47'1 1.8
2017-Dec-17 01:00N 35°28' E 139°47'2 4.6
2017-Dec-17 00:30N 35°26' E 139°45'1 2.5
2017-Dec-17 00:01N 35°26' E 139°44'2 4.7
2017-Dec-16 23:31N 35°27' E 139°42'2 4.0
2017-Dec-16 23:00N 35°27' E 139°39'0 0.0
2017-Dec-16 22:30N 35°27' E 139°39'0 0.0
2017-Dec-16 22:00N 35°27' E 139°39'0 0.0
2017-Dec-16 21:31N 35°27' E 139°39'0 0.0
2017-Dec-16 21:01N 35°27' E 139°39'0 0.0
2017-Dec-16 20:30N 35°27' E 139°39'0 0.0
2017-Dec-16 20:00N 35°27' E 139°39'0 0.0
2017-Dec-16 19:30N 35°27' E 139°39'0 0.0
2017-Dec-16 19:01N 35°27' E 139°39'0 0.0
2017-Dec-16 18:30N 35°27' E 139°39'0 0.0
2017-Dec-16 18:00N 35°27' E 139°39'0 0.0
2017-Dec-16 17:30N 35°27' E 139°39'0 0.0
2017-Dec-16 17:00N 35°27' E 139°39'0 0.0
2017-Dec-16 16:31N 35°27' E 139°39'0 0.0
2017-Dec-16 16:00N 35°27' E 139°39'0 0.0
2017-Dec-16 15:30N 35°27' E 139°39'0 0.0
2017-Dec-16 15:01N 35°27' E 139°39'0 0.0
2017-Dec-16 14:30N 35°27' E 139°39'0 0.0
2017-Dec-16 14:01N 35°27' E 139°39'0 0.0
2017-Dec-16 13:30N 35°27' E 139°39'0 0.0
2017-Dec-16 13:00N 35°27' E 139°39'0 0.0
2017-Dec-16 12:30N 35°27' E 139°39'0 0.0
2017-Dec-16 12:00N 35°27' E 139°39'0 0.0
2017-Dec-16 11:31N 35°27' E 139°39'0 0.0
2017-Dec-16 11:01N 35°27' E 139°39'0 0.0
2017-Dec-16 10:30N 35°27' E 139°39'0 0.0
2017-Dec-16 10:00N 35°27' E 139°39'0 0.0
2017-Dec-16 09:31N 35°27' E 139°39'0 0.0
2017-Dec-16 09:00N 35°27' E 139°39'0 0.0
2017-Dec-16 08:30N 35°27' E 139°39'0 0.0
2017-Dec-16 08:01N 35°27' E 139°39'0 0.0
2017-Dec-16 07:30N 35°27' E 139°39'0 0.0
2017-Dec-16 07:00N 35°27' E 139°39'0 0.0
2017-Dec-16 06:31N 35°27' E 139°39'0 0.0
2017-Dec-16 06:00N 35°27' E 139°39'0 0.0
2017-Dec-16 05:30N 35°27' E 139°39'0 0.0
2017-Dec-16 05:00N 35°27' E 139°39'0 0.0
2017-Dec-16 04:31N 35°27' E 139°39'0 0.0
2017-Dec-16 04:01N 35°27' E 139°39'0 0.0
2017-Dec-16 03:30N 35°27' E 139°39'0 0.0
2017-Dec-16 03:00N 35°27' E 139°39'0 0.0
2017-Dec-16 02:31N 35°27' E 139°39'0 0.0
2017-Dec-16 02:00N 35°27' E 139°39'4 7.1
2017-Dec-16 01:30N 35°27' E 139°43'4 8.8
2017-Dec-16 01:00N 35°29' E 139°48'4 8.7
2017-Dec-16 00:31N 35°30' E 139°54'611.7
2017-Dec-16 00:00N 35°31' E 140°01'1 2.5
2017-Dec-15 23:30N 35°31' E 140°02'4 7.8
2017-Dec-15 23:00N 35°30' E 139°58'611.6
2017-Dec-15 22:31N 35°28' E 139°51'5 9.6
2017-Dec-15 22:01N 35°27' E 139°45'4 8.3
2017-Dec-15 21:30N 35°27' E 139°40'1 1.9
2017-Dec-15 21:01N 35°27' E 139°39'0 0.0
2017-Dec-15 20:31N 35°27' E 139°39'0 0.0
2017-Dec-15 20:01N 35°27' E 139°39'0 0.0
2017-Dec-15 19:31N 35°27' E 139°39'0 0.0
2017-Dec-15 19:01N 35°27' E 139°39'0 0.0
2017-Dec-15 18:30N 35°27' E 139°39'0 0.0
2017-Dec-15 18:01N 35°27' E 139°39'0 0.0
2017-Dec-15 17:31N 35°27' E 139°39'0 0.0
2017-Dec-15 17:01N 35°27' E 139°39'0 0.0
2017-Dec-15 16:31N 35°27' E 139°39'0 0.0
2017-Dec-15 16:01N 35°27' E 139°39'0 0.0
2017-Dec-15 15:31N 35°27' E 139°39'0 0.0
2017-Dec-15 15:00N 35°27' E 139°39'0 0.0
2017-Dec-15 14:30N 35°27' E 139°39'0 0.0
2017-Dec-15 14:00N 35°27' E 139°39'0 0.0
2017-Dec-15 13:30N 35°27' E 139°39'0 0.0
2017-Dec-15 13:00N 35°27' E 139°39'0 0.0
2017-Dec-15 12:31N 35°27' E 139°39'0 0.0
2017-Dec-15 12:01N 35°27' E 139°39'0 0.0
2017-Dec-15 11:30N 35°27' E 139°39'0 0.0
2017-Dec-15 11:01N 35°27' E 139°39'0 0.0
2017-Dec-15 10:31N 35°27' E 139°39'0 0.0
2017-Dec-15 10:01N 35°27' E 139°39'0 0.0
2017-Dec-15 09:31N 35°27' E 139°39'0 0.0
2017-Dec-15 09:01N 35°27' E 139°39'0 0.0
2017-Dec-15 08:31N 35°27' E 139°39'0 0.0
2017-Dec-15 08:01N 35°27' E 139°39'0 0.0
2017-Dec-15 07:31N 35°27' E 139°39'0 0.0
2017-Dec-15 07:01N 35°27' E 139°39'0 0.0
2017-Dec-15 06:30N 35°27' E 139°39'0 0.0
2017-Dec-15 06:01N 35°27' E 139°39'0 0.0
2017-Dec-15 05:31N 35°27' E 139°39'0 0.0
2017-Dec-15 05:01N 35°27' E 139°39'0 0.0
2017-Dec-15 04:31N 35°27' E 139°39'0 0.0
2017-Dec-15 04:00N 35°27' E 139°39'0 0.0
2017-Dec-15 02:31N 35°27' E 139°39'2 1.3
2017-Dec-15 01:00N 35°28' E 139°41'0 1.0
2017-Dec-15 00:31N 35°28' E 139°42'2 0.4
2017-Dec-14 18:31N 35°27' E 139°39'0 0.0
2017-Dec-14 18:01N 35°27' E 139°39'0 0.0
2017-Dec-14 17:31N 35°27' E 139°39'0 0.0
2017-Dec-14 17:00N 35°27' E 139°39'0 0.0
2017-Dec-14 16:31N 35°27' E 139°39'0 0.0
2017-Dec-14 16:01N 35°27' E 139°39'0 0.0
2017-Dec-14 15:01N 35°27' E 139°39'0 0.0
2017-Dec-14 14:30N 35°27' E 139°39'0 0.0
2017-Dec-14 14:01N 35°27' E 139°39'0 0.0
2017-Dec-14 13:30N 35°27' E 139°39'0 0.0
2017-Dec-14 13:00N 35°27' E 139°39'0 0.0
2017-Dec-14 12:31N 35°27' E 139°39'0 0.0
2017-Dec-14 12:01N 35°27' E 139°39'0 0.0
2017-Dec-14 11:31N 35°27' E 139°39'0 0.0
2017-Dec-14 11:01N 35°27' E 139°39'0 0.0
2017-Dec-14 10:30N 35°27' E 139°39'0 0.0
2017-Dec-14 10:01N 35°27' E 139°39'0 0.0
2017-Dec-14 09:31N 35°27' E 139°39'0 0.0
2017-Dec-14 09:01N 35°27' E 139°39'0 0.0
2017-Dec-14 08:30N 35°27' E 139°39'0 0.0
2017-Dec-14 08:01N 35°27' E 139°39'0 0.0
2017-Dec-14 07:31N 35°27' E 139°39'1 2.8
2017-Dec-14 07:01N 35°27' E 139°41'4 8.8
2017-Dec-14 06:30N 35°29' E 139°46'2 4.6
2017-Dec-14 06:01N 35°31' E 139°46'4 8.2
2017-Dec-14 05:30N 35°29' E 139°42'2 3.2
2017-Dec-14 05:01N 35°28' E 139°40'3 5.5
2017-Dec-14 04:31N 35°29' E 139°43'3 5.4
2017-Dec-14 03:59N 35°31' E 139°46'0 0.7
2017-Dec-14 03:31N 35°31' E 139°46'3 5.7
2017-Dec-14 03:01N 35°29' E 139°43'2 4.5
2017-Dec-14 02:30N 35°27' E 139°43'1 2.1
2017-Dec-14 02:01N 35°28' E 139°44'4 7.1
2017-Dec-14 01:31N 35°27' E 139°40'0 0.2
2017-Dec-14 01:00N 35°27' E 139°39'2 4.5
2017-Dec-14 00:30N 35°27' E 139°42'5 9.3
2017-Dec-14 00:00N 35°29' E 139°47'2 4.0
2017-Dec-13 23:30N 35°30' E 139°45'1 1.7
2017-Dec-13 23:01N 35°30' E 139°44'3 5.8
2017-Dec-13 22:31N 35°28' E 139°41'2 3.9
2017-Dec-13 22:01N 35°27' E 139°39'0 0.0
2017-Dec-13 21:31N 35°27' E 139°39'0 0.0
2017-Dec-13 21:00N 35°27' E 139°39'0 0.0
2017-Dec-13 20:30N 35°27' E 139°39'0 0.0
2017-Dec-13 20:00N 35°27' E 139°39'0 0.0
2017-Dec-13 19:30N 35°27' E 139°39'0 0.0
2017-Dec-13 19:00N 35°27' E 139°39'0 0.0
2017-Dec-13 18:30N 35°27' E 139°39'0 0.0
2017-Dec-13 18:01N 35°27' E 139°39'0 0.0
2017-Dec-13 17:31N 35°27' E 139°39'0 0.0
2017-Dec-13 17:01N 35°27' E 139°39'0 0.0
2017-Dec-13 16:31N 35°27' E 139°39'0 0.0
2017-Dec-13 16:01N 35°27' E 139°39'0 0.0
2017-Dec-13 15:31N 35°27' E 139°39'0 0.0
2017-Dec-13 15:00N 35°27' E 139°39'0 0.0
2017-Dec-13 14:30N 35°27' E 139°39'0 0.0
2017-Dec-13 14:01N 35°27' E 139°39'0 0.0
2017-Dec-13 13:31N 35°27' E 139°39'0 0.0
2017-Dec-13 13:01N 35°27' E 139°39'0 0.0
2017-Dec-13 12:31N 35°27' E 139°39'0 0.0
2017-Dec-13 12:00N 35°27' E 139°39'0 0.0
2017-Dec-13 11:30N 35°27' E 139°39'0 0.0
2017-Dec-13 11:00N 35°27' E 139°39'0 0.0
2017-Dec-13 10:31N 35°27' E 139°39'0 0.0
2017-Dec-13 10:01N 35°27' E 139°39'0 0.0
2017-Dec-13 09:31N 35°27' E 139°39'0 0.0
2017-Dec-13 09:00N 35°27' E 139°39'0 0.0
2017-Dec-13 08:31N 35°27' E 139°39'0 0.0
2017-Dec-13 08:01N 35°27' E 139°39'0 0.0
2017-Dec-13 07:31N 35°27' E 139°39'0 0.0
2017-Dec-13 07:00N 35°27' E 139°39'0 0.0
2017-Dec-13 06:30N 35°27' E 139°39'0 0.0
2017-Dec-13 06:01N 35°27' E 139°39'0 0.0
2017-Dec-13 05:31N 35°27' E 139°39'0 0.0
2017-Dec-13 05:01N 35°27' E 139°39'0 0.0
2017-Dec-13 04:31N 35°27' E 139°39'0 0.0
2017-Dec-13 04:01N 35°27' E 139°39'0 0.0
2017-Dec-13 03:31N 35°27' E 139°39'0 0.0
2017-Dec-13 03:01N 35°27' E 139°39'0 0.0
2017-Dec-13 02:31N 35°27' E 139°39'0 0.0
2017-Dec-13 02:01N 35°27' E 139°39'0 0.0
2017-Dec-13 01:31N 35°27' E 139°39'0 0.0
2017-Dec-13 01:00N 35°27' E 139°39'0 0.0
2017-Dec-13 00:31N 35°27' E 139°39'0 0.0
2017-Dec-13 00:00N 35°27' E 139°39'2 4.1
2017-Dec-12 23:30N 35°27' E 139°42'3 6.1
2017-Dec-12 23:00N 35°24' E 139°40'1 1.2
2017-Dec-12 22:30N 35°24' E 139°40'1 2.5
2017-Dec-12 22:00N 35°23' E 139°41'3 5.3
2017-Dec-12 21:31N 35°25' E 139°43'1 2.3
2017-Dec-12 21:01N 35°25' E 139°42'0 0.1
2017-Dec-12 20:31N 35°25' E 139°42'0 0.1
2017-Dec-12 20:01N 35°25' E 139°42'2 4.0
2017-Dec-12 19:31N 35°24' E 139°40'0 0.8
2017-Dec-12 19:01N 35°24' E 139°41'0 0.2
2017-Dec-12 18:31N 35°24' E 139°41'3 5.1
2017-Dec-12 18:01N 35°26' E 139°42'2 3.0
2017-Dec-12 17:31N 35°28' E 139°41'0 0.0
2017-Dec-12 17:01N 35°28' E 139°41'0 0.0
2017-Dec-12 16:31N 35°28' E 139°41'0 0.0
2017-Dec-12 16:00N 35°28' E 139°41'0 0.0
2017-Dec-12 15:31N 35°28' E 139°41'0 0.0
2017-Dec-12 15:00N 35°28' E 139°41'0 0.0
2017-Dec-12 14:31N 35°28' E 139°41'3 5.0
2017-Dec-12 14:01N 35°25' E 139°42'2 3.3
2017-Dec-12 13:30N 35°24' E 139°41'1 1.7
2017-Dec-12 13:00N 35°23' E 139°41'3 6.6
2017-Dec-12 12:30N 35°25' E 139°44'1 1.0
2017-Dec-12 12:01N 35°25' E 139°43'3 5.3
2017-Dec-12 11:31N 35°24' E 139°41'0 0.9
2017-Dec-12 11:00N 35°24' E 139°41'0 0.1
2017-Dec-12 10:31N 35°24' E 139°41'0 0.1
2017-Dec-12 10:01N 35°24' E 139°41'3 5.1
2017-Dec-12 09:31N 35°27' E 139°41'1 2.6
2017-Dec-12 09:01N 35°28' E 139°40'0 0.0
2017-Dec-12 08:31N 35°28' E 139°40'0 0.0
2017-Dec-12 08:01N 35°28' E 139°40'0 0.0
2017-Dec-12 07:30N 35°28' E 139°40'0 0.0
2017-Dec-12 07:01N 35°28' E 139°40'0 0.0
2017-Dec-12 06:31N 35°28' E 139°40'2 4.7
2017-Dec-12 06:01N 35°29' E 139°43'3 6.7
2017-Dec-12 05:30N 35°31' E 139°46'0 0.0
2017-Dec-12 05:01N 35°31' E 139°46'0 0.3
2017-Dec-12 04:31N 35°31' E 139°46'1 2.8
2017-Dec-12 04:01N 35°30' E 139°47'1 1.6
2017-Dec-12 03:30N 35°29' E 139°47'3 5.3
2017-Dec-12 03:01N 35°28' E 139°44'4 8.1
2017-Dec-12 02:30N 35°27' E 139°39'0 0.1
2017-Dec-12 02:01N 35°27' E 139°39'0 0.0
2017-Dec-12 01:30N 35°27' E 139°39'0 0.0
2017-Dec-12 01:00N 35°27' E 139°39'0 0.0
2017-Dec-12 00:31N 35°27' E 139°39'0 0.0
2017-Dec-12 00:00N 35°27' E 139°39'0 0.0
2017-Dec-11 23:30N 35°27' E 139°39'0 0.0
2017-Dec-11 23:01N 35°27' E 139°39'0 0.0
2017-Dec-11 22:31N 35°27' E 139°39'0 0.0
2017-Dec-11 22:00N 35°27' E 139°39'0 0.0
2017-Dec-11 21:30N 35°27' E 139°39'0 0.0
2017-Dec-11 21:00N 35°27' E 139°39'0 0.0
2017-Dec-11 20:30N 35°27' E 139°39'0 0.0
2017-Dec-11 20:00N 35°27' E 139°39'0 0.0
2017-Dec-11 19:31N 35°27' E 139°39'0 0.0
2017-Dec-11 19:01N 35°27' E 139°39'0 0.0
2017-Dec-11 18:31N 35°27' E 139°39'0 0.0
2017-Dec-11 18:00N 35°27' E 139°39'0 0.0
2017-Dec-11 17:30N 35°27' E 139°39'0 0.0
2017-Dec-11 17:00N 35°27' E 139°39'0 0.0
2017-Dec-11 16:30N 35°27' E 139°39'0 0.0
2017-Dec-11 16:00N 35°27' E 139°39'0 0.0
2017-Dec-11 15:30N 35°27' E 139°39'0 0.0
2017-Dec-11 15:01N 35°27' E 139°39'0 0.0
2017-Dec-11 14:31N 35°27' E 139°39'0 0.0
2017-Dec-11 14:00N 35°27' E 139°39'0 0.0
2017-Dec-11 13:30N 35°27' E 139°39'0 0.0
2017-Dec-11 13:00N 35°27' E 139°39'0 0.0
2017-Dec-11 12:30N 35°27' E 139°39'0 0.0
2017-Dec-11 12:01N 35°27' E 139°39'0 0.0
2017-Dec-11 11:31N 35°27' E 139°39'0 0.0
2017-Dec-11 11:01N 35°27' E 139°39'0 0.0
2017-Dec-11 10:30N 35°27' E 139°39'0 0.0
2017-Dec-11 10:01N 35°27' E 139°39'0 0.0
2017-Dec-11 09:31N 35°27' E 139°39'0 0.0
2017-Dec-11 09:01N 35°27' E 139°39'0 0.0
2017-Dec-11 08:31N 35°27' E 139°39'0 0.0
2017-Dec-11 08:01N 35°27' E 139°39'0 0.0
2017-Dec-11 07:30N 35°27' E 139°39'0 0.0
2017-Dec-11 07:01N 35°27' E 139°39'0 0.0
2017-Dec-11 06:30N 35°27' E 139°39'0 0.7
2017-Dec-11 06:01N 35°27' E 139°39'0 0.0
2017-Dec-11 05:30N 35°27' E 139°39'3 5.5
2017-Dec-11 05:01N 35°25' E 139°42'5 9.1
2017-Dec-11 04:30N 35°21' E 139°42'5 9.2
2017-Dec-11 04:00N 35°17' E 139°45'4 8.8
2017-Dec-11 03:30N 35°12' E 139°46'611.6
2017-Dec-11 03:01N 35°18' E 139°44'611.0
2017-Dec-11 02:30N 35°23' E 139°41'2 5.0
2017-Dec-11 02:01N 35°24' E 139°39'0 0.3
2017-Dec-11 01:30N 35°25' E 139°39'0 0.6
2017-Dec-11 01:01N 35°24' E 139°39'0 0.0
2017-Dec-11 00:31N 35°24' E 139°39'1 2.0
2017-Dec-11 00:01N 35°23' E 139°39'1 2.5
2017-Dec-10 23:31N 35°23' E 139°40'0 0.6
2017-Dec-10 23:01N 35°22' E 139°41'4 8.3
2017-Dec-10 22:31N 35°27' E 139°41'2 3.6
2017-Dec-10 22:00N 35°27' E 139°39'0 0.0
2017-Dec-10 21:31N 35°27' E 139°39'0 0.0
2017-Dec-10 21:01N 35°27' E 139°39'0 0.0
2017-Dec-10 20:30N 35°27' E 139°39'0 0.0
2017-Dec-10 20:01N 35°27' E 139°39'0 0.0
2017-Dec-10 19:31N 35°27' E 139°39'0 0.0
2017-Dec-10 19:01N 35°27' E 139°39'0 0.0
2017-Dec-10 18:30N 35°27' E 139°39'0 0.0
2017-Dec-10 18:01N 35°27' E 139°39'0 0.0
2017-Dec-10 17:31N 35°27' E 139°39'0 0.0
2017-Dec-10 17:01N 35°27' E 139°39'0 0.0
2017-Dec-10 16:31N 35°27' E 139°39'0 0.0
2017-Dec-10 16:01N 35°27' E 139°39'0 0.0
2017-Dec-10 15:31N 35°27' E 139°39'0 0.0
2017-Dec-10 15:01N 35°27' E 139°39'0 0.0
2017-Dec-10 14:30N 35°27' E 139°39'0 0.0
2017-Dec-10 14:01N 35°27' E 139°39'0 0.0
2017-Dec-10 13:31N 35°27' E 139°39'0 0.0
2017-Dec-10 13:01N 35°27' E 139°39'0 0.0
2017-Dec-10 12:30N 35°27' E 139°39'0 0.0
2017-Dec-10 12:01N 35°27' E 139°39'0 0.0
2017-Dec-10 11:31N 35°27' E 139°39'0 0.0
2017-Dec-10 11:01N 35°27' E 139°39'0 0.0
2017-Dec-10 10:30N 35°27' E 139°39'0 0.0
2017-Dec-10 10:01N 35°27' E 139°39'0 0.0
2017-Dec-10 09:31N 35°27' E 139°39'0 0.0
2017-Dec-10 09:01N 35°27' E 139°39'0 0.0
2017-Dec-10 08:31N 35°27' E 139°39'1 2.1
2017-Dec-10 08:00N 35°28' E 139°39'0 0.0
2017-Dec-10 07:31N 35°28' E 139°39'0 0.8
2017-Dec-10 07:01N 35°28' E 139°39'1 1.6
2017-Dec-10 06:31N 35°27' E 139°40'0 0.1
2017-Dec-10 06:01N 35°27' E 139°40'1 2.4
2017-Dec-10 05:31N 35°27' E 139°39'0 0.0
2017-Dec-10 05:01N 35°27' E 139°39'0 0.0
2017-Dec-10 04:30N 35°27' E 139°39'0 0.0
2017-Dec-10 04:01N 35°27' E 139°39'0 0.0
2017-Dec-10 03:31N 35°27' E 139°39'0 0.0
2017-Dec-10 03:01N 35°27' E 139°39'1 1.7
2017-Dec-10 02:31N 35°27' E 139°40'4 8.1
2017-Dec-10 02:01N 35°28' E 139°45'2 4.4
2017-Dec-10 01:31N 35°29' E 139°47'0 0.0
2017-Dec-10 01:01N 35°29' E 139°47'0 0.4
2017-Dec-10 00:31N 35°29' E 139°47'2 3.1
2017-Dec-10 00:01N 35°27' E 139°47'2 3.2
2017-Dec-09 23:30N 35°26' E 139°45'3 5.2
2017-Dec-09 23:01N 35°29' E 139°45'0 0.0
2017-Dec-09 22:30N 35°29' E 139°45'2 4.0
2017-Dec-09 22:00N 35°30' E 139°47'2 3.2
2017-Dec-09 21:30N 35°31' E 139°46'2 4.1
2017-Dec-09 21:01N 35°30' E 139°44'5 9.8
2017-Dec-09 20:30N 35°27' E 139°39'0 0.0
2017-Dec-09 20:01N 35°27' E 139°39'0 0.0
2017-Dec-09 19:30N 35°27' E 139°39'0 0.0
2017-Dec-09 19:01N 35°27' E 139°39'0 0.0
2017-Dec-09 18:31N 35°27' E 139°39'0 0.0
2017-Dec-09 18:01N 35°27' E 139°39'0 0.0
2017-Dec-09 17:31N 35°27' E 139°39'0 0.0
2017-Dec-09 17:00N 35°27' E 139°39'0 0.0
2017-Dec-09 16:31N 35°27' E 139°39'0 0.0
2017-Dec-09 16:01N 35°27' E 139°39'0 0.0
2017-Dec-09 15:30N 35°27' E 139°39'0 0.0
2017-Dec-09 15:00N 35°27' E 139°39'0 0.0
2017-Dec-09 14:31N 35°27' E 139°39'0 0.0
2017-Dec-09 14:01N 35°27' E 139°39'0 0.0
2017-Dec-09 13:30N 35°27' E 139°39'0 0.0
2017-Dec-09 13:00N 35°27' E 139°39'0 0.0
2017-Dec-09 12:30N 35°27' E 139°39'0 0.0
2017-Dec-09 12:01N 35°27' E 139°39'0 0.0
2017-Dec-09 11:31N 35°27' E 139°39'0 0.0
2017-Dec-09 11:00N 35°27' E 139°39'0 0.0
2017-Dec-09 10:31N 35°27' E 139°39'0 0.0
2017-Dec-09 10:01N 35°27' E 139°39'0 0.0
2017-Dec-09 09:30N 35°27' E 139°39'0 0.0
2017-Dec-09 09:01N 35°27' E 139°39'0 0.0
2017-Dec-09 08:30N 35°27' E 139°39'0 0.0
2017-Dec-09 08:01N 35°27' E 139°39'0 0.0
2017-Dec-09 07:31N 35°27' E 139°39'2 4.5
2017-Dec-09 07:01N 35°28' E 139°41'0 0.1
2017-Dec-09 06:31N 35°28' E 139°41'2 3.9
2017-Dec-09 06:01N 35°27' E 139°39'0 0.7
2017-Dec-09 05:31N 35°27' E 139°39'0 0.0
2017-Dec-09 05:01N 35°27' E 139°39'0 0.0
2017-Dec-09 04:31N 35°27' E 139°39'0 0.0
2017-Dec-09 04:01N 35°27' E 139°39'0 0.0
2017-Dec-09 03:31N 35°27' E 139°39'0 0.0
2017-Dec-09 03:01N 35°27' E 139°39'0 0.0
2017-Dec-09 02:31N 35°27' E 139°39'0 0.7
2017-Dec-09 02:00N 35°27' E 139°39'5 9.3
2017-Dec-09 01:30N 35°30' E 139°44'2 4.0
2017-Dec-09 01:00N 35°31' E 139°46'0 0.1
2017-Dec-09 00:30N 35°31' E 139°46'0 0.0
2017-Dec-09 00:00N 35°31' E 139°46'1 1.5
2017-Dec-08 23:31N 35°30' E 139°46'4 8.7
2017-Dec-08 23:01N 35°28' E 139°41'2 4.7
2017-Dec-08 22:31N 35°26' E 139°41'0 0.1
2017-Dec-08 22:01N 35°26' E 139°41'1 2.3
2017-Dec-08 21:31N 35°27' E 139°40'1 2.2
2017-Dec-08 21:01N 35°27' E 139°39'0 0.0
2017-Dec-08 20:30N 35°27' E 139°39'0 0.0
2017-Dec-08 20:01N 35°27' E 139°39'0 0.0
2017-Dec-08 19:30N 35°27' E 139°39'0 0.0
2017-Dec-08 19:00N 35°27' E 139°39'0 0.0
2017-Dec-08 18:31N 35°27' E 139°39'0 0.0
2017-Dec-08 18:01N 35°27' E 139°39'0 0.0
2017-Dec-08 17:31N 35°27' E 139°39'0 0.0
2017-Dec-08 17:00N 35°27' E 139°39'0 0.0
2017-Dec-08 16:31N 35°27' E 139°39'0 0.0
2017-Dec-08 16:00N 35°27' E 139°39'0 0.0
2017-Dec-08 15:30N 35°27' E 139°39'0 0.0
2017-Dec-08 15:01N 35°27' E 139°39'0 0.0
2017-Dec-08 14:31N 35°27' E 139°39'0 0.0
2017-Dec-08 14:00N 35°27' E 139°39'0 0.0
2017-Dec-08 13:31N 35°27' E 139°39'0 0.0
2017-Dec-08 13:00N 35°27' E 139°39'0 0.0
2017-Dec-08 12:31N 35°27' E 139°39'0 0.0
2017-Dec-08 12:01N 35°27' E 139°39'0 0.0
2017-Dec-08 11:30N 35°27' E 139°39'0 0.0
2017-Dec-08 11:01N 35°27' E 139°39'0 0.0
2017-Dec-08 10:31N 35°27' E 139°39'0 0.0
2017-Dec-08 10:00N 35°27' E 139°39'0 0.0
2017-Dec-08 09:31N 35°27' E 139°39'0 0.0
2017-Dec-08 09:01N 35°27' E 139°39'0 0.0
2017-Dec-08 08:30N 35°27' E 139°39'0 0.0
2017-Dec-08 08:01N 35°27' E 139°39'0 0.0
2017-Dec-08 07:31N 35°27' E 139°39'0 0.0
2017-Dec-08 07:00N 35°27' E 139°39'0 0.0
2017-Dec-08 06:31N 35°27' E 139°39'0 0.0
2017-Dec-08 06:01N 35°27' E 139°39'2 4.3
2017-Dec-08 05:31N 35°26' E 139°42'3 5.4
2017-Dec-08 05:01N 35°24' E 139°39'1 1.1
2017-Dec-08 04:30N 35°25' E 139°39'1 2.9
2017-Dec-08 04:01N 35°24' E 139°40'1 1.8
2017-Dec-08 03:31N 35°23' E 139°40'2 3.6
2017-Dec-08 03:01N 35°24' E 139°42'3 6.5
2017-Dec-08 02:31N 35°27' E 139°39'0 0.0
2017-Dec-08 02:00N 35°27' E 139°39'0 0.0
2017-Dec-08 01:31N 35°27' E 139°39'0 0.0
2017-Dec-08 01:00N 35°27' E 139°39'0 0.0
2017-Dec-08 00:31N 35°27' E 139°39'0 0.0
2017-Dec-08 00:01N 35°27' E 139°39'0 0.0
2017-Dec-07 23:30N 35°27' E 139°39'0 0.0
2017-Dec-07 23:01N 35°27' E 139°39'0 0.0
2017-Dec-07 22:31N 35°27' E 139°39'0 0.0
2017-Dec-07 22:01N 35°27' E 139°39'0 0.0
2017-Dec-07 21:30N 35°27' E 139°39'0 0.0
2017-Dec-07 21:01N 35°27' E 139°39'0 0.0
2017-Dec-07 20:31N 35°27' E 139°39'0 0.0
2017-Dec-07 20:01N 35°27' E 139°39'0 0.0
2017-Dec-07 19:31N 35°27' E 139°39'0 0.0
2017-Dec-07 19:01N 35°27' E 139°39'0 0.0
2017-Dec-07 18:31N 35°27' E 139°39'0 0.0
2017-Dec-07 18:01N 35°27' E 139°39'0 0.0
2017-Dec-07 17:31N 35°27' E 139°39'0 0.0
2017-Dec-07 17:00N 35°27' E 139°39'0 0.0
2017-Dec-07 16:31N 35°27' E 139°39'0 0.0
2017-Dec-07 16:00N 35°27' E 139°39'0 0.0
2017-Dec-07 15:30N 35°27' E 139°39'0 0.0
2017-Dec-07 15:01N 35°27' E 139°39'  
Track history (hours):
 
Tides and Currents Weather Stations Pressure Air Temp Water Temp Dewpoint Dewpoint Depression Visibility Wind Speed Wind Dir Waves Ship Positions

Ginga

Last reported at 2017-Dec-17 15:00 UTC. Time now 2017-Dec-17 15:29 UTC.
Position N 35°27' E 139°39'.

Length 38 m; draft 3.3 m.

Type: Tug. MMSI: 431004768.

Date/timePositionNaut miles runAvg speedWind from/ knotsBaromVisibWave heightAir tempDewpointWater temp
2017-Dec-17 15:00N 35°27' E 139°39'0 0.0
2017-Dec-17 14:31N 35°27' E 139°39'0 0.0
2017-Dec-17 14:00N 35°27' E 139°39'0 0.0
2017-Dec-17 13:30N 35°27' E 139°39'0 0.0
2017-Dec-17 13:00N 35°27' E 139°39'0 0.0
2017-Dec-17 12:30N 35°27' E 139°39'0 0.0
2017-Dec-17 12:01N 35°27' E 139°39'0 0.0
2017-Dec-17 11:30N 35°27' E 139°39'2 4.3
2017-Dec-17 11:00N 35°26' E 139°42'2 3.6
2017-Dec-17 10:31N 35°24' E 139°41'0 0.1
2017-Dec-17 10:00N 35°24' E 139°41'1 2.6
2017-Dec-17 09:30N 35°23' E 139°41'0 0.8
2017-Dec-17 09:01N 35°23' E 139°41'3 5.7
2017-Dec-17 08:30N 35°26' E 139°41'3 6.7
2017-Dec-17 08:00N 35°28' E 139°45'2 4.5
2017-Dec-17 07:31N 35°30' E 139°47'0 0.1
2017-Dec-17 07:00N 35°30' E 139°47'0 0.0
2017-Dec-17 06:30N 35°30' E 139°47'1 1.8
2017-Dec-17 06:01N 35°30' E 139°48'1 2.5
2017-Dec-17 05:30N 35°28' E 139°48'1 2.7
2017-Dec-17 05:01N 35°29' E 139°47'0 0.0
2017-Dec-17 04:30N 35°29' E 139°47'0 0.0
2017-Dec-17 04:01N 35°29' E 139°47'0 0.0
2017-Dec-17 03:30N 35°29' E 139°47'0 0.7
2017-Dec-17 03:00N 35°29' E 139°47'0 0.0
2017-Dec-17 02:30N 35°29' E 139°47'0 0.0
2017-Dec-17 02:01N 35°29' E 139°47'0 0.2
2017-Dec-17 01:30N 35°29' E 139°47'1 1.8
2017-Dec-17 01:00N 35°28' E 139°47'2 4.6
2017-Dec-17 00:30N 35°26' E 139°45'1 2.5
2017-Dec-17 00:01N 35°26' E 139°44'2 4.7
2017-Dec-16 23:31N 35°27' E 139°42'2 4.0
2017-Dec-16 23:00N 35°27' E 139°39'0 0.0
2017-Dec-16 22:30N 35°27' E 139°39'0 0.0
2017-Dec-16 22:00N 35°27' E 139°39'0 0.0
2017-Dec-16 21:31N 35°27' E 139°39'0 0.0
2017-Dec-16 21:01N 35°27' E 139°39'0 0.0
2017-Dec-16 20:30N 35°27' E 139°39'0 0.0
2017-Dec-16 20:00N 35°27' E 139°39'0 0.0
2017-Dec-16 19:30N 35°27' E 139°39'0 0.0
2017-Dec-16 19:01N 35°27' E 139°39'0 0.0
2017-Dec-16 18:30N 35°27' E 139°39'0 0.0
2017-Dec-16 18:00N 35°27' E 139°39'0 0.0
2017-Dec-16 17:30N 35°27' E 139°39'0 0.0
2017-Dec-16 17:00N 35°27' E 139°39'0 0.0
2017-Dec-16 16:31N 35°27' E 139°39'0 0.0
2017-Dec-16 16:00N 35°27' E 139°39'0 0.0
2017-Dec-16 15:30N 35°27' E 139°39'0 0.0
2017-Dec-16 15:01N 35°27' E 139°39'0 0.0
2017-Dec-16 14:30N 35°27' E 139°39'0 0.0
2017-Dec-16 14:01N 35°27' E 139°39'0 0.0
2017-Dec-16 13:30N 35°27' E 139°39'0 0.0
2017-Dec-16 13:00N 35°27' E 139°39'0 0.0
2017-Dec-16 12:30N 35°27' E 139°39'0 0.0
2017-Dec-16 12:00N 35°27' E 139°39'0 0.0
2017-Dec-16 11:31N 35°27' E 139°39'0 0.0
2017-Dec-16 11:01N 35°27' E 139°39'0 0.0
2017-Dec-16 10:30N 35°27' E 139°39'0 0.0
2017-Dec-16 10:00N 35°27' E 139°39'0 0.0
2017-Dec-16 09:31N 35°27' E 139°39'0 0.0
2017-Dec-16 09:00N 35°27' E 139°39'0 0.0
2017-Dec-16 08:30N 35°27' E 139°39'0 0.0
2017-Dec-16 08:01N 35°27' E 139°39'0 0.0
2017-Dec-16 07:30N 35°27' E 139°39'0 0.0
2017-Dec-16 07:00N 35°27' E 139°39'0 0.0
2017-Dec-16 06:31N 35°27' E 139°39'0 0.0
2017-Dec-16 06:00N 35°27' E 139°39'0 0.0
2017-Dec-16 05:30N 35°27' E 139°39'0 0.0
2017-Dec-16 05:00N 35°27' E 139°39'0 0.0
2017-Dec-16 04:31N 35°27' E 139°39'0 0.0
2017-Dec-16 04:01N 35°27' E 139°39'0 0.0
2017-Dec-16 03:30N 35°27' E 139°39'0 0.0
2017-Dec-16 03:00N 35°27' E 139°39'0 0.0
2017-Dec-16 02:31N 35°27' E 139°39'0 0.0
2017-Dec-16 02:00N 35°27' E 139°39'4 7.1
2017-Dec-16 01:30N 35°27' E 139°43'4 8.8
2017-Dec-16 01:00N 35°29' E 139°48'4 8.7
2017-Dec-16 00:31N 35°30' E 139°54'611.7
2017-Dec-16 00:00N 35°31' E 140°01'1 2.5
2017-Dec-15 23:30N 35°31' E 140°02'4 7.8
2017-Dec-15 23:00N 35°30' E 139°58'611.6
2017-Dec-15 22:31N 35°28' E 139°51'5 9.6
2017-Dec-15 22:01N 35°27' E 139°45'4 8.3
2017-Dec-15 21:30N 35°27' E 139°40'1 1.9
2017-Dec-15 21:01N 35°27' E 139°39'0 0.0
2017-Dec-15 20:31N 35°27' E 139°39'0 0.0
2017-Dec-15 20:01N 35°27' E 139°39'0 0.0
2017-Dec-15 19:31N 35°27' E 139°39'0 0.0
2017-Dec-15 19:01N 35°27' E 139°39'0 0.0
2017-Dec-15 18:30N 35°27' E 139°39'0 0.0
2017-Dec-15 18:01N 35°27' E 139°39'0 0.0
2017-Dec-15 17:31N 35°27' E 139°39'0 0.0
2017-Dec-15 17:01N 35°27' E 139°39'0 0.0
2017-Dec-15 16:31N 35°27' E 139°39'0 0.0
2017-Dec-15 16:01N 35°27' E 139°39'0 0.0
2017-Dec-15 15:31N 35°27' E 139°39'0 0.0
2017-Dec-15 15:00N 35°27' E 139°39'0 0.0
2017-Dec-15 14:30N 35°27' E 139°39'0 0.0
2017-Dec-15 14:00N 35°27' E 139°39'0 0.0
2017-Dec-15 13:30N 35°27' E 139°39'0 0.0
2017-Dec-15 13:00N 35°27' E 139°39'0 0.0
2017-Dec-15 12:31N 35°27' E 139°39'0 0.0
2017-Dec-15 12:01N 35°27' E 139°39'0 0.0
2017-Dec-15 11:30N 35°27' E 139°39'0 0.0
2017-Dec-15 11:01N 35°27' E 139°39'0 0.0
2017-Dec-15 10:31N 35°27' E 139°39'0 0.0
2017-Dec-15 10:01N 35°27' E 139°39'0 0.0
2017-Dec-15 09:31N 35°27' E 139°39'0 0.0
2017-Dec-15 09:01N 35°27' E 139°39'0 0.0
2017-Dec-15 08:31N 35°27' E 139°39'0 0.0
2017-Dec-15 08:01N 35°27' E 139°39'0 0.0
2017-Dec-15 07:31N 35°27' E 139°39'0 0.0
2017-Dec-15 07:01N 35°27' E 139°39'0 0.0
2017-Dec-15 06:30N 35°27' E 139°39'0 0.0
2017-Dec-15 06:01N 35°27' E 139°39'0 0.0
2017-Dec-15 05:31N 35°27' E 139°39'0 0.0
2017-Dec-15 05:01N 35°27' E 139°39'0 0.0
2017-Dec-15 04:31N 35°27' E 139°39'0 0.0
2017-Dec-15 04:00N 35°27' E 139°39'0 0.0
2017-Dec-15 02:31N 35°27' E 139°39'2 1.3
2017-Dec-15 01:00N 35°28' E 139°41'0 1.0
2017-Dec-15 00:31N 35°28' E 139°42'2 0.4
2017-Dec-14 18:31N 35°27' E 139°39'0 0.0
2017-Dec-14 18:01N 35°27' E 139°39'0 0.0
2017-Dec-14 17:31N 35°27' E 139°39'0 0.0
2017-Dec-14 17:00N 35°27' E 139°39'0 0.0
2017-Dec-14 16:31N 35°27' E 139°39'0 0.0
2017-Dec-14 16:01N 35°27' E 139°39'0 0.0
2017-Dec-14 15:01N 35°27' E 139°39'0 0.0
2017-Dec-14 14:30N 35°27' E 139°39'0 0.0
2017-Dec-14 14:01N 35°27' E 139°39'0 0.0
2017-Dec-14 13:30N 35°27' E 139°39'0 0.0
2017-Dec-14 13:00N 35°27' E 139°39'0 0.0
2017-Dec-14 12:31N 35°27' E 139°39'0 0.0
2017-Dec-14 12:01N 35°27' E 139°39'0 0.0
2017-Dec-14 11:31N 35°27' E 139°39'0 0.0
2017-Dec-14 11:01N 35°27' E 139°39'0 0.0
2017-Dec-14 10:30N 35°27' E 139°39'0 0.0
2017-Dec-14 10:01N 35°27' E 139°39'0 0.0
2017-Dec-14 09:31N 35°27' E 139°39'0 0.0
2017-Dec-14 09:01N 35°27' E 139°39'0 0.0
2017-Dec-14 08:30N 35°27' E 139°39'0 0.0
2017-Dec-14 08:01N 35°27' E 139°39'0 0.0
2017-Dec-14 07:31N 35°27' E 139°39'1 2.8
2017-Dec-14 07:01N 35°27' E 139°41'4 8.8
2017-Dec-14 06:30N 35°29' E 139°46'2 4.6
2017-Dec-14 06:01N 35°31' E 139°46'4 8.2
2017-Dec-14 05:30N 35°29' E 139°42'2 3.2
2017-Dec-14 05:01N 35°28' E 139°40'3 5.5
2017-Dec-14 04:31N 35°29' E 139°43'3 5.4
2017-Dec-14 03:59N 35°31' E 139°46'0 0.7
2017-Dec-14 03:31N 35°31' E 139°46'3 5.7
2017-Dec-14 03:01N 35°29' E 139°43'2 4.5
2017-Dec-14 02:30N 35°27' E 139°43'1 2.1
2017-Dec-14 02:01N 35°28' E 139°44'4 7.1
2017-Dec-14 01:31N 35°27' E 139°40'0 0.2
2017-Dec-14 01:00N 35°27' E 139°39'2 4.5
2017-Dec-14 00:30N 35°27' E 139°42'5 9.3
2017-Dec-14 00:00N 35°29' E 139°47'2 4.0
2017-Dec-13 23:30N 35°30' E 139°45'1 1.7
2017-Dec-13 23:01N 35°30' E 139°44'3 5.8
2017-Dec-13 22:31N 35°28' E 139°41'2 3.9
2017-Dec-13 22:01N 35°27' E 139°39'0 0.0
2017-Dec-13 21:31N 35°27' E 139°39'0 0.0
2017-Dec-13 21:00N 35°27' E 139°39'0 0.0
2017-Dec-13 20:30N 35°27' E 139°39'0 0.0
2017-Dec-13 20:00N 35°27' E 139°39'0 0.0
2017-Dec-13 19:30N 35°27' E 139°39'0 0.0
2017-Dec-13 19:00N 35°27' E 139°39'0 0.0
2017-Dec-13 18:30N 35°27' E 139°39'0 0.0
2017-Dec-13 18:01N 35°27' E 139°39'0 0.0
2017-Dec-13 17:31N 35°27' E 139°39'0 0.0
2017-Dec-13 17:01N 35°27' E 139°39'0 0.0
2017-Dec-13 16:31N 35°27' E 139°39'0 0.0
2017-Dec-13 16:01N 35°27' E 139°39'0 0.0
2017-Dec-13 15:31N 35°27' E 139°39'0 0.0
2017-Dec-13 15:00N 35°27' E 139°39'0 0.0
2017-Dec-13 14:30N 35°27' E 139°39'0 0.0
2017-Dec-13 14:01N 35°27' E 139°39'0 0.0
2017-Dec-13 13:31N 35°27' E 139°39'0 0.0
2017-Dec-13 13:01N 35°27' E 139°39'0 0.0
2017-Dec-13 12:31N 35°27' E 139°39'0 0.0
2017-Dec-13 12:00N 35°27' E 139°39'0 0.0
2017-Dec-13 11:30N 35°27' E 139°39'0 0.0
2017-Dec-13 11:00N 35°27' E 139°39'0 0.0
2017-Dec-13 10:31N 35°27' E 139°39'0 0.0
2017-Dec-13 10:01N 35°27' E 139°39'0 0.0
2017-Dec-13 09:31N 35°27' E 139°39'0 0.0
2017-Dec-13 09:00N 35°27' E 139°39'0 0.0
2017-Dec-13 08:31N 35°27' E 139°39'0 0.0
2017-Dec-13 08:01N 35°27' E 139°39'0 0.0
2017-Dec-13 07:31N 35°27' E 139°39'0 0.0
2017-Dec-13 07:00N 35°27' E 139°39'0 0.0
2017-Dec-13 06:30N 35°27' E 139°39'0 0.0
2017-Dec-13 06:01N 35°27' E 139°39'0 0.0
2017-Dec-13 05:31N 35°27' E 139°39'0 0.0
2017-Dec-13 05:01N 35°27' E 139°39'0 0.0
2017-Dec-13 04:31N 35°27' E 139°39'0 0.0
2017-Dec-13 04:01N 35°27' E 139°39'0 0.0
2017-Dec-13 03:31N 35°27' E 139°39'0 0.0
2017-Dec-13 03:01N 35°27' E 139°39'0 0.0
2017-Dec-13 02:31N 35°27' E 139°39'0 0.0
2017-Dec-13 02:01N 35°27' E 139°39'0 0.0
2017-Dec-13 01:31N 35°27' E 139°39'0 0.0
2017-Dec-13 01:00N 35°27' E 139°39'0 0.0
2017-Dec-13 00:31N 35°27' E 139°39'0 0.0
2017-Dec-13 00:00N 35°27' E 139°39'2 4.1
2017-Dec-12 23:30N 35°27' E 139°42'3 6.1
2017-Dec-12 23:00N 35°24' E 139°40'1 1.2
2017-Dec-12 22:30N 35°24' E 139°40'1 2.5
2017-Dec-12 22:00N 35°23' E 139°41'3 5.3
2017-Dec-12 21:31N 35°25' E 139°43'1 2.3
2017-Dec-12 21:01N 35°25' E 139°42'0 0.1
2017-Dec-12 20:31N 35°25' E 139°42'0 0.1
2017-Dec-12 20:01N 35°25' E 139°42'2 4.0
2017-Dec-12 19:31N 35°24' E 139°40'0 0.8
2017-Dec-12 19:01N 35°24' E 139°41'0 0.2
2017-Dec-12 18:31N 35°24' E 139°41'3 5.1
2017-Dec-12 18:01N 35°26' E 139°42'2 3.0
2017-Dec-12 17:31N 35°28' E 139°41'0 0.0
2017-Dec-12 17:01N 35°28' E 139°41'0 0.0
2017-Dec-12 16:31N 35°28' E 139°41'0 0.0
2017-Dec-12 16:00N 35°28' E 139°41'0 0.0
2017-Dec-12 15:31N 35°28' E 139°41'0 0.0
2017-Dec-12 15:00N 35°28' E 139°41'0 0.0
2017-Dec-12 14:31N 35°28' E 139°41'3 5.0
2017-Dec-12 14:01N 35°25' E 139°42'2 3.3
2017-Dec-12 13:30N 35°24' E 139°41'1 1.7
2017-Dec-12 13:00N 35°23' E 139°41'3 6.6
2017-Dec-12 12:30N 35°25' E 139°44'1 1.0
2017-Dec-12 12:01N 35°25' E 139°43'3 5.3
2017-Dec-12 11:31N 35°24' E 139°41'0 0.9
2017-Dec-12 11:00N 35°24' E 139°41'0 0.1
2017-Dec-12 10:31N 35°24' E 139°41'0 0.1
2017-Dec-12 10:01N 35°24' E 139°41'3 5.1
2017-Dec-12 09:31N 35°27' E 139°41'1 2.6
2017-Dec-12 09:01N 35°28' E 139°40'0 0.0
2017-Dec-12 08:31N 35°28' E 139°40'0 0.0
2017-Dec-12 08:01N 35°28' E 139°40'0 0.0
2017-Dec-12 07:30N 35°28' E 139°40'0 0.0
2017-Dec-12 07:01N 35°28' E 139°40'0 0.0
2017-Dec-12 06:31N 35°28' E 139°40'2 4.7
2017-Dec-12 06:01N 35°29' E 139°43'3 6.7
2017-Dec-12 05:30N 35°31' E 139°46'0 0.0
2017-Dec-12 05:01N 35°31' E 139°46'0 0.3
2017-Dec-12 04:31N 35°31' E 139°46'1 2.8
2017-Dec-12 04:01N 35°30' E 139°47'1 1.6
2017-Dec-12 03:30N 35°29' E 139°47'3 5.3
2017-Dec-12 03:01N 35°28' E 139°44'4 8.1
2017-Dec-12 02:30N 35°27' E 139°39'0 0.1
2017-Dec-12 02:01N 35°27' E 139°39'0 0.0
2017-Dec-12 01:30N 35°27' E 139°39'0 0.0
2017-Dec-12 01:00N 35°27' E 139°39'0 0.0
2017-Dec-12 00:31N 35°27' E 139°39'0 0.0
2017-Dec-12 00:00N 35°27' E 139°39'0 0.0
2017-Dec-11 23:30N 35°27' E 139°39'0 0.0
2017-Dec-11 23:01N 35°27' E 139°39'0 0.0
2017-Dec-11 22:31N 35°27' E 139°39'0 0.0
2017-Dec-11 22:00N 35°27' E 139°39'0 0.0
2017-Dec-11 21:30N 35°27' E 139°39'0 0.0
2017-Dec-11 21:00N 35°27' E 139°39'0 0.0
2017-Dec-11 20:30N 35°27' E 139°39'0 0.0
2017-Dec-11 20:00N 35°27' E 139°39'0 0.0
2017-Dec-11 19:31N 35°27' E 139°39'0 0.0
2017-Dec-11 19:01N 35°27' E 139°39'0 0.0
2017-Dec-11 18:31N 35°27' E 139°39'0 0.0
2017-Dec-11 18:00N 35°27' E 139°39'0 0.0
2017-Dec-11 17:30N 35°27' E 139°39'0 0.0
2017-Dec-11 17:00N 35°27' E 139°39'0 0.0
2017-Dec-11 16:30N 35°27' E 139°39'0 0.0
2017-Dec-11 16:00N 35°27' E 139°39'0 0.0
2017-Dec-11 15:30N 35°27' E 139°39'0 0.0
2017-Dec-11 15:01N 35°27' E 139°39'0 0.0
2017-Dec-11 14:31N 35°27' E 139°39'0 0.0
2017-Dec-11 14:00N 35°27' E 139°39'0 0.0
2017-Dec-11 13:30N 35°27' E 139°39'0 0.0
2017-Dec-11 13:00N 35°27' E 139°39'0 0.0
2017-Dec-11 12:30N 35°27' E 139°39'0 0.0
2017-Dec-11 12:01N 35°27' E 139°39'0 0.0
2017-Dec-11 11:31N 35°27' E 139°39'0 0.0
2017-Dec-11 11:01N 35°27' E 139°39'0 0.0
2017-Dec-11 10:30N 35°27' E 139°39'0 0.0
2017-Dec-11 10:01N 35°27' E 139°39'0 0.0
2017-Dec-11 09:31N 35°27' E 139°39'0 0.0
2017-Dec-11 09:01N 35°27' E 139°39'0 0.0
2017-Dec-11 08:31N 35°27' E 139°39'0 0.0
2017-Dec-11 08:01N 35°27' E 139°39'0 0.0
2017-Dec-11 07:30N 35°27' E 139°39'0 0.0
2017-Dec-11 07:01N 35°27' E 139°39'0 0.0
2017-Dec-11 06:30N 35°27' E 139°39'0 0.7
2017-Dec-11 06:01N 35°27' E 139°39'0 0.0
2017-Dec-11 05:30N 35°27' E 139°39'3 5.5
2017-Dec-11 05:01N 35°25' E 139°42'5 9.1
2017-Dec-11 04:30N 35°21' E 139°42'5 9.2
2017-Dec-11 04:00N 35°17' E 139°45'4 8.8
2017-Dec-11 03:30N 35°12' E 139°46'611.6
2017-Dec-11 03:01N 35°18' E 139°44'611.0
2017-Dec-11 02:30N 35°23' E 139°41'2 5.0
2017-Dec-11 02:01N 35°24' E 139°39'0 0.3
2017-Dec-11 01:30N 35°25' E 139°39'0 0.6
2017-Dec-11 01:01N 35°24' E 139°39'0 0.0
2017-Dec-11 00:31N 35°24' E 139°39'1 2.0
2017-Dec-11 00:01N 35°23' E 139°39'1 2.5
2017-Dec-10 23:31N 35°23' E 139°40'0 0.6
2017-Dec-10 23:01N 35°22' E 139°41'4 8.3
2017-Dec-10 22:31N 35°27' E 139°41'2 3.6
2017-Dec-10 22:00N 35°27' E 139°39'0 0.0
2017-Dec-10 21:31N 35°27' E 139°39'0 0.0
2017-Dec-10 21:01N 35°27' E 139°39'0 0.0
2017-Dec-10 20:30N 35°27' E 139°39'0 0.0
2017-Dec-10 20:01N 35°27' E 139°39'0 0.0
2017-Dec-10 19:31N 35°27' E 139°39'0 0.0
2017-Dec-10 19:01N 35°27' E 139°39'0 0.0
2017-Dec-10 18:30N 35°27' E 139°39'0 0.0
2017-Dec-10 18:01N 35°27' E 139°39'0 0.0
2017-Dec-10 17:31N 35°27' E 139°39'0 0.0
2017-Dec-10 17:01N 35°27' E 139°39'0 0.0
2017-Dec-10 16:31N 35°27' E 139°39'0 0.0
2017-Dec-10 16:01N 35°27' E 139°39'0 0.0
2017-Dec-10 15:31N 35°27' E 139°39'0 0.0
2017-Dec-10 15:01N 35°27' E 139°39'0 0.0
2017-Dec-10 14:30N 35°27' E 139°39'0 0.0
2017-Dec-10 14:01N 35°27' E 139°39'0 0.0
2017-Dec-10 13:31N 35°27' E 139°39'0 0.0
2017-Dec-10 13:01N 35°27' E 139°39'0 0.0
2017-Dec-10 12:30N 35°27' E 139°39'0 0.0
2017-Dec-10 12:01N 35°27' E 139°39'0 0.0
2017-Dec-10 11:31N 35°27' E 139°39'0 0.0
2017-Dec-10 11:01N 35°27' E 139°39'0 0.0
2017-Dec-10 10:30N 35°27' E 139°39'0 0.0
2017-Dec-10 10:01N 35°27' E 139°39'0 0.0
2017-Dec-10 09:31N 35°27' E 139°39'0 0.0
2017-Dec-10 09:01N 35°27' E 139°39'0 0.0
2017-Dec-10 08:31N 35°27' E 139°39'1 2.1
2017-Dec-10 08:00N 35°28' E 139°39'0 0.0
2017-Dec-10 07:31N 35°28' E 139°39'0 0.8
2017-Dec-10 07:01N 35°28' E 139°39'1 1.6
2017-Dec-10 06:31N 35°27' E 139°40'0 0.1
2017-Dec-10 06:01N 35°27' E 139°40'1 2.4
2017-Dec-10 05:31N 35°27' E 139°39'0 0.0
2017-Dec-10 05:01N 35°27' E 139°39'0 0.0
2017-Dec-10 04:30N 35°27' E 139°39'0 0.0
2017-Dec-10 04:01N 35°27' E 139°39'0 0.0
2017-Dec-10 03:31N 35°27' E 139°39'0 0.0
2017-Dec-10 03:01N 35°27' E 139°39'1 1.7
2017-Dec-10 02:31N 35°27' E 139°40'4 8.1
2017-Dec-10 02:01N 35°28' E 139°45'2 4.4
2017-Dec-10 01:31N 35°29' E 139°47'0 0.0
2017-Dec-10 01:01N 35°29' E 139°47'0 0.4
2017-Dec-10 00:31N 35°29' E 139°47'2 3.1
2017-Dec-10 00:01N 35°27' E 139°47'2 3.2
2017-Dec-09 23:30N 35°26' E 139°45'3 5.2
2017-Dec-09 23:01N 35°29' E 139°45'0 0.0
2017-Dec-09 22:30N 35°29' E 139°45'2 4.0
2017-Dec-09 22:00N 35°30' E 139°47'2 3.2
2017-Dec-09 21:30N 35°31' E 139°46'2 4.1
2017-Dec-09 21:01N 35°30' E 139°44'5 9.8
2017-Dec-09 20:30N 35°27' E 139°39'0 0.0
2017-Dec-09 20:01N 35°27' E 139°39'0 0.0
2017-Dec-09 19:30N 35°27' E 139°39'0 0.0
2017-Dec-09 19:01N 35°27' E 139°39'0 0.0
2017-Dec-09 18:31N 35°27' E 139°39'0 0.0
2017-Dec-09 18:01N 35°27' E 139°39'0 0.0
2017-Dec-09 17:31N 35°27' E 139°39'0 0.0
2017-Dec-09 17:00N 35°27' E 139°39'0 0.0
2017-Dec-09 16:31N 35°27' E 139°39'0 0.0
2017-Dec-09 16:01N 35°27' E 139°39'0 0.0
2017-Dec-09 15:30N 35°27' E 139°39'0 0.0
2017-Dec-09 15:00N 35°27' E 139°39'0 0.0
2017-Dec-09 14:31N 35°27' E 139°39'0 0.0
2017-Dec-09 14:01N 35°27' E 139°39'0 0.0
2017-Dec-09 13:30N 35°27' E 139°39'0 0.0
2017-Dec-09 13:00N 35°27' E 139°39'0 0.0
2017-Dec-09 12:30N 35°27' E 139°39'0 0.0
2017-Dec-09 12:01N 35°27' E 139°39'0 0.0
2017-Dec-09 11:31N 35°27' E 139°39'0 0.0
2017-Dec-09 11:00N 35°27' E 139°39'0 0.0
2017-Dec-09 10:31N 35°27' E 139°39'0 0.0
2017-Dec-09 10:01N 35°27' E 139°39'0 0.0
2017-Dec-09 09:30N 35°27' E 139°39'0 0.0
2017-Dec-09 09:01N 35°27' E 139°39'0 0.0
2017-Dec-09 08:30N 35°27' E 139°39'0 0.0
2017-Dec-09 08:01N 35°27' E 139°39'0 0.0
2017-Dec-09 07:31N 35°27' E 139°39'2 4.5
2017-Dec-09 07:01N 35°28' E 139°41'0 0.1
2017-Dec-09 06:31N 35°28' E 139°41'2 3.9
2017-Dec-09 06:01N 35°27' E 139°39'0 0.7
2017-Dec-09 05:31N 35°27' E 139°39'0 0.0
2017-Dec-09 05:01N 35°27' E 139°39'0 0.0
2017-Dec-09 04:31N 35°27' E 139°39'0 0.0
2017-Dec-09 04:01N 35°27' E 139°39'0 0.0
2017-Dec-09 03:31N 35°27' E 139°39'0 0.0
2017-Dec-09 03:01N 35°27' E 139°39'0 0.0
2017-Dec-09 02:31N 35°27' E 139°39'0 0.7
2017-Dec-09 02:00N 35°27' E 139°39'5 9.3
2017-Dec-09 01:30N 35°30' E 139°44'2 4.0
2017-Dec-09 01:00N 35°31' E 139°46'0 0.1
2017-Dec-09 00:30N 35°31' E 139°46'0 0.0
2017-Dec-09 00:00N 35°31' E 139°46'1 1.5
2017-Dec-08 23:31N 35°30' E 139°46'4 8.7
2017-Dec-08 23:01N 35°28' E 139°41'2 4.7
2017-Dec-08 22:31N 35°26' E 139°41'0 0.1
2017-Dec-08 22:01N 35°26' E 139°41'1 2.3
2017-Dec-08 21:31N 35°27' E 139°40'1 2.2
2017-Dec-08 21:01N 35°27' E 139°39'0 0.0
2017-Dec-08 20:30N 35°27' E 139°39'0 0.0
2017-Dec-08 20:01N 35°27' E 139°39'0 0.0
2017-Dec-08 19:30N 35°27' E 139°39'0 0.0
2017-Dec-08 19:00N 35°27' E 139°39'0 0.0
2017-Dec-08 18:31N 35°27' E 139°39'0 0.0
2017-Dec-08 18:01N 35°27' E 139°39'0 0.0
2017-Dec-08 17:31N 35°27' E 139°39'0 0.0
2017-Dec-08 17:00N 35°27' E 139°39'0 0.0
2017-Dec-08 16:31N 35°27' E 139°39'0 0.0
2017-Dec-08 16:00N 35°27' E 139°39'0 0.0
2017-Dec-08 15:30N 35°27' E 139°39'0 0.0
2017-Dec-08 15:01N 35°27' E 139°39'0 0.0
2017-Dec-08 14:31N 35°27' E 139°39'0 0.0
2017-Dec-08 14:00N 35°27' E 139°39'0 0.0
2017-Dec-08 13:31N 35°27' E 139°39'0 0.0
2017-Dec-08 13:00N 35°27' E 139°39'0 0.0
2017-Dec-08 12:31N 35°27' E 139°39'0 0.0
2017-Dec-08 12:01N 35°27' E 139°39'0 0.0
2017-Dec-08 11:30N 35°27' E 139°39'0 0.0
2017-Dec-08 11:01N 35°27' E 139°39'0 0.0
2017-Dec-08 10:31N 35°27' E 139°39'0 0.0
2017-Dec-08 10:00N 35°27' E 139°39'0 0.0
2017-Dec-08 09:31N 35°27' E 139°39'0 0.0
2017-Dec-08 09:01N 35°27' E 139°39'0 0.0
2017-Dec-08 08:30N 35°27' E 139°39'0 0.0
2017-Dec-08 08:01N 35°27' E 139°39'0 0.0
2017-Dec-08 07:31N 35°27' E 139°39'0 0.0
2017-Dec-08 07:00N 35°27' E 139°39'0 0.0
2017-Dec-08 06:31N 35°27' E 139°39'0 0.0
2017-Dec-08 06:01N 35°27' E 139°39'2 4.3
2017-Dec-08 05:31N 35°26' E 139°42'3 5.4
2017-Dec-08 05:01N 35°24' E 139°39'1 1.1
2017-Dec-08 04:30N 35°25' E 139°39'1 2.9
2017-Dec-08 04:01N 35°24' E 139°40'1 1.8
2017-Dec-08 03:31N 35°23' E 139°40'2 3.6
2017-Dec-08 03:01N 35°24' E 139°42'3 6.5
2017-Dec-08 02:31N 35°27' E 139°39'0 0.0
2017-Dec-08 02:00N 35°27' E 139°39'0 0.0
2017-Dec-08 01:31N 35°27' E 139°39'0 0.0
2017-Dec-08 01:00N 35°27' E 139°39'0 0.0
2017-Dec-08 00:31N 35°27' E 139°39'0 0.0
2017-Dec-08 00:01N 35°27' E 139°39'0 0.0
2017-Dec-07 23:30N 35°27' E 139°39'0 0.0
2017-Dec-07 23:01N 35°27' E 139°39'0 0.0
2017-Dec-07 22:31N 35°27' E 139°39'0 0.0
2017-Dec-07 22:01N 35°27' E 139°39'0 0.0
2017-Dec-07 21:30N 35°27' E 139°39'0 0.0
2017-Dec-07 21:01N 35°27' E 139°39'0 0.0
2017-Dec-07 20:31N 35°27' E 139°39'0 0.0
2017-Dec-07 20:01N 35°27' E 139°39'0 0.0
2017-Dec-07 19:31N 35°27' E 139°39'0 0.0
2017-Dec-07 19:01N 35°27' E 139°39'0 0.0
2017-Dec-07 18:31N 35°27' E 139°39'0 0.0
2017-Dec-07 18:01N 35°27' E 139°39'0 0.0
2017-Dec-07 17:31N 35°27' E 139°39'0 0.0
2017-Dec-07 17:00N 35°27' E 139°39'0 0.0
2017-Dec-07 16:31N 35°27' E 139°39'0 0.0
2017-Dec-07 16:00N 35°27' E 139°39'0 0.0
2017-Dec-07 15:30N 35°27' E 139°39'0 0.0
2017-Dec-07 15:01N 35°27' E 139°39'  

Dump ship's entire track history